PWSweather.com
Personal Weather Stations
Station Observations
IMAZOWIE6
WarszawaPL

WarszawaPL

Lat: 52.27957, Lon: 21.05489

Elevation: 100

Station Type: WS1080

http://stacjapogody.waw.pl/

High Low Average
Temperature 36.9°F2.7°C 30.4°F-0.9°C 33.2°F0.7°C
Dew Point 26.4°F-3.1°C 8.9°F-12.8°C 16.2°F-8.8°C
Winds 0.6 mph 1.0 kmh Calm Calm Calm NCalm N
Wind Gusts 3.4 mph5.5 kmh -- --
Humidity 67% 37% 50%
Pressure 29.54 in1000.3 mb 29.45 in997.3 mb -
Precipitation 0.00 in0.0 mm - -
Hour Temp Dew Point Humidity Winds Wind Gusts Pressure Precip Precip Rate Daily Precip Total
12:06 AM 32.5°F0.3°C 8.9°F-12.8°C 37% Calm Calm -- 29.54 in1000.3 mb 0.00 in0.0 mm 0.00 in0.0 mm 0.00 in0.0 mm
12:21 AM 32.5°F0.3°C 8.9°F-12.8°C 37% Calm Calm -- 29.54 in1000.3 mb 0.00 in0.0 mm 0.00 in0.0 mm 0.00 in0.0 mm
12:36 AM 32.5°F0.3°C 8.9°F-12.8°C 37% Calm Calm -- 29.54 in1000.3 mb 0.00 in0.0 mm 0.00 in0.0 mm 0.00 in0.0 mm
12:51 AM 32.5°F0.3°C 9.5°F-12.5°C 38% Calm Calm -- 29.54 in1000.3 mb 0.00 in0.0 mm 0.00 in0.0 mm 0.00 in0.0 mm
01:06 AM 32.5°F0.3°C 9.5°F-12.5°C 38% Calm Calm -- 29.54 in1000.3 mb 0.00 in0.0 mm 0.00 in0.0 mm 0.00 in0.0 mm
01:21 AM 32.7°F0.4°C 9.7°F-12.4°C 38% Calm Calm -- 29.53 in1000.0 mb 0.00 in0.0 mm 0.00 in0.0 mm 0.00 in0.0 mm
01:36 AM 32.9°F0.5°C 10.4°F-12.0°C 39% Calm Calm -- 29.53 in1000.0 mb 0.00 in0.0 mm 0.00 in0.0 mm 0.00 in0.0 mm
01:51 AM 33.1°F0.6°C 10.6°F-11.9°C 39% Calm Calm -- 29.53 in1000.0 mb 0.00 in0.0 mm 0.00 in0.0 mm 0.00 in0.0 mm
02:06 AM 32.9°F0.5°C 11.0°F-11.7°C 40% Calm Calm -- 29.53 in1000.0 mb 0.00 in0.0 mm 0.00 in0.0 mm 0.00 in0.0 mm
02:21 AM 32.7°F0.4°C 10.8°F-11.8°C 40% Calm Calm -- 29.52 in999.7 mb 0.00 in0.0 mm 0.00 in0.0 mm 0.00 in0.0 mm
02:36 AM 32.7°F0.4°C 10.8°F-11.8°C 40% Calm Calm -- 29.52 in999.7 mb 0.00 in0.0 mm 0.00 in0.0 mm 0.00 in0.0 mm
02:51 AM 32.7°F0.4°C 10.8°F-11.8°C 40% Calm Calm -- 29.52 in999.7 mb 0.00 in0.0 mm 0.00 in0.0 mm 0.00 in0.0 mm
03:06 AM 32.9°F0.5°C 11.0°F-11.7°C 40% Calm Calm -- 29.52 in999.7 mb 0.00 in0.0 mm 0.00 in0.0 mm 0.00 in0.0 mm
03:21 AM 32.4°F0.2°C 10.5°F-11.9°C 40% Calm Calm 0.6 mph1.0 kmh 29.52 in999.7 mb 0.00 in0.0 mm 0.00 in0.0 mm 0.00 in0.0 mm
03:36 AM 32.2°F0.1°C 10.3°F-12.1°C 40% Calm Calm -- 29.51 in999.3 mb 0.00 in0.0 mm 0.00 in0.0 mm 0.00 in0.0 mm
03:51 AM 32.4°F0.2°C 11.1°F-11.6°C 41% Calm Calm -- 29.51 in999.3 mb 0.00 in0.0 mm 0.00 in0.0 mm 0.00 in0.0 mm
04:06 AM 32.4°F0.2°C 11.1°F-11.6°C 41% Calm Calm -- 29.51 in999.3 mb 0.00 in0.0 mm 0.00 in0.0 mm 0.00 in0.0 mm
04:21 AM 32.4°F0.2°C 11.1°F-11.6°C 41% Calm Calm -- 29.51 in999.3 mb 0.00 in0.0 mm 0.00 in0.0 mm 0.00 in0.0 mm
04:36 AM 32.2°F0.1°C 10.9°F-11.7°C 41% Calm Calm -- 29.50 in999.0 mb 0.00 in0.0 mm 0.00 in0.0 mm 0.00 in0.0 mm
04:51 AM 32.2°F0.1°C 11.4°F-11.4°C 42% Calm Calm -- 29.50 in999.0 mb 0.00 in0.0 mm 0.00 in0.0 mm 0.00 in0.0 mm
05:06 AM 32.4°F0.2°C 11.6°F-11.3°C 42% Calm Calm -- 29.50 in999.0 mb 0.00 in0.0 mm 0.00 in0.0 mm 0.00 in0.0 mm
05:21 AM 32.0°F0.0°C 11.8°F-11.2°C 43% Calm Calm -- 29.49 in998.6 mb 0.00 in0.0 mm 0.00 in0.0 mm 0.00 in0.0 mm
05:36 AM 32.0°F0.0°C 11.8°F-11.2°C 43% Calm Calm -- 29.49 in998.6 mb 0.00 in0.0 mm 0.00 in0.0 mm 0.00 in0.0 mm
05:51 AM 32.2°F0.1°C 12.5°F-10.8°C 44% Calm Calm -- 29.49 in998.6 mb 0.00 in0.0 mm 0.00 in0.0 mm 0.00 in0.0 mm
06:06 AM 32.2°F0.1°C 13.0°F-10.6°C 45% Calm Calm -- 29.49 in998.6 mb 0.00 in0.0 mm 0.00 in0.0 mm 0.00 in0.0 mm
06:21 AM 32.4°F0.2°C 13.2°F-10.4°C 45% Calm Calm -- 29.49 in998.6 mb 0.00 in0.0 mm 0.00 in0.0 mm 0.00 in0.0 mm
06:36 AM 32.4°F0.2°C 13.7°F-10.2°C 46% Calm Calm -- 29.48 in998.3 mb 0.00 in0.0 mm 0.00 in0.0 mm 0.00 in0.0 mm
06:51 AM 32.5°F0.3°C 14.3°F-9.8°C 47% Calm Calm -- 29.48 in998.3 mb 0.00 in0.0 mm 0.00 in0.0 mm 0.00 in0.0 mm
07:06 AM 32.7°F0.4°C 15.0°F-9.4°C 48% Calm Calm -- 29.48 in998.3 mb 0.00 in0.0 mm 0.00 in0.0 mm 0.00 in0.0 mm
07:21 AM 32.9°F0.5°C 15.6°F-9.1°C 49% Calm Calm -- 29.48 in998.3 mb 0.00 in0.0 mm 0.00 in0.0 mm 0.00 in0.0 mm
07:36 AM 32.7°F0.4°C 15.9°F-8.9°C 50% Calm Calm -- 29.48 in998.3 mb 0.00 in0.0 mm 0.00 in0.0 mm 0.00 in0.0 mm
07:51 AM 32.7°F0.4°C 16.4°F-8.7°C 51% Calm Calm -- 29.50 in999.0 mb 0.00 in0.0 mm 0.00 in0.0 mm 0.00 in0.0 mm
08:06 AM 33.1°F0.6°C 17.2°F-8.2°C 52% Calm Calm -- 29.49 in998.6 mb 0.00 in0.0 mm 0.00 in0.0 mm 0.00 in0.0 mm
08:21 AM 33.1°F0.6°C 17.6°F-8.0°C 53% Calm Calm -- 29.48 in998.3 mb 0.00 in0.0 mm 0.00 in0.0 mm 0.00 in0.0 mm
08:36 AM 33.1°F0.6°C 18.1°F-7.7°C 54% Calm Calm -- 29.49 in998.6 mb 0.00 in0.0 mm 0.00 in0.0 mm 0.00 in0.0 mm
08:51 AM 33.1°F0.6°C 18.5°F-7.5°C 55% Calm Calm -- 29.49 in998.6 mb 0.00 in0.0 mm 0.00 in0.0 mm 0.00 in0.0 mm
09:06 AM 33.3°F0.7°C 19.1°F-7.2°C 56% Calm Calm -- 29.48 in998.3 mb 0.00 in0.0 mm 0.00 in0.0 mm 0.00 in0.0 mm
09:21 AM 33.3°F0.7°C 19.5°F-6.9°C 57% Calm Calm -- 29.48 in998.3 mb 0.00 in0.0 mm 0.00 in0.0 mm 0.00 in0.0 mm
09:36 AM 33.4°F0.8°C 20.5°F-6.4°C 59% Calm Calm -- 29.48 in998.3 mb 0.00 in0.0 mm 0.00 in0.0 mm 0.00 in0.0 mm
09:51 AM 34.2°F1.2°C 21.6°F-5.8°C 60% Calm Calm -- 29.48 in998.3 mb 0.00 in0.0 mm 0.00 in0.0 mm 0.00 in0.0 mm
10:06 AM 34.2°F1.2°C 22.4°F-5.3°C 62% Calm Calm -- 29.48 in998.3 mb 0.00 in0.0 mm 0.00 in0.0 mm 0.00 in0.0 mm
10:21 AM 34.2°F1.2°C 22.7°F-5.2°C 63% Calm Calm -- 29.48 in998.3 mb 0.00 in0.0 mm 0.00 in0.0 mm 0.00 in0.0 mm
10:36 AM 34.3°F1.3°C 23.3°F-4.8°C 64% Calm Calm -- 29.48 in998.3 mb 0.00 in0.0 mm 0.00 in0.0 mm 0.00 in0.0 mm
10:51 AM 34.7°F1.5°C 24.0°F-4.4°C 65% Calm Calm -- 29.48 in998.3 mb 0.00 in0.0 mm 0.00 in0.0 mm 0.00 in0.0 mm
11:06 AM 34.7°F1.5°C 24.0°F-4.4°C 65% Calm Calm -- 29.47 in998.0 mb 0.00 in0.0 mm 0.00 in0.0 mm 0.00 in0.0 mm
11:21 AM 34.9°F1.6°C 24.5°F-4.2°C 66% Calm Calm -- 29.47 in998.0 mb 0.00 in0.0 mm 0.00 in0.0 mm 0.00 in0.0 mm
11:36 AM 34.7°F1.5°C 24.4°F-4.2°C 66% Calm Calm -- 29.47 in998.0 mb 0.00 in0.0 mm 0.00 in0.0 mm 0.00 in0.0 mm
11:51 AM 34.9°F1.6°C 24.9°F-3.9°C 67% Calm Calm -- 29.47 in998.0 mb 0.00 in0.0 mm 0.00 in0.0 mm 0.00 in0.0 mm
12:06 PM 34.9°F1.6°C 24.9°F-3.9°C 67% Calm Calm -- 29.47 in998.0 mb 0.00 in0.0 mm 0.00 in0.0 mm 0.00 in0.0 mm
12:21 PM 34.7°F1.5°C 24.4°F-4.2°C 66% Calm Calm -- 29.47 in998.0 mb 0.00 in0.0 mm 0.00 in0.0 mm 0.00 in0.0 mm
12:36 PM 34.5°F1.4°C 24.2°F-4.3°C 66% Calm Calm -- 29.47 in998.0 mb 0.00 in0.0 mm 0.00 in0.0 mm 0.00 in0.0 mm
12:51 PM 34.5°F1.4°C 24.2°F-4.3°C 66% Calm Calm -- 29.47 in998.0 mb 0.00 in0.0 mm 0.00 in0.0 mm 0.00 in0.0 mm
01:06 PM 34.3°F1.3°C 24.0°F-4.4°C 66% Calm Calm -- 29.47 in998.0 mb 0.00 in0.0 mm 0.00 in0.0 mm 0.00 in0.0 mm
01:21 PM 34.5°F1.4°C 24.2°F-4.3°C 66% Calm Calm -- 29.46 in997.6 mb 0.00 in0.0 mm 0.00 in0.0 mm 0.00 in0.0 mm
01:36 PM 34.9°F1.6°C 24.5°F-4.2°C 66% Calm Calm -- 29.46 in997.6 mb 0.00 in0.0 mm 0.00 in0.0 mm 0.00 in0.0 mm
01:51 PM 35.4°F1.9°C 25.1°F-3.8°C 66% Calm Calm -- 29.45 in997.3 mb 0.00 in0.0 mm 0.00 in0.0 mm 0.00 in0.0 mm
02:06 PM 36.3°F2.4°C 25.9°F-3.4°C 66% Calm Calm -- 29.46 in997.6 mb 0.00 in0.0 mm 0.00 in0.0 mm 0.00 in0.0 mm
02:21 PM 36.9°F2.7°C 26.4°F-3.1°C 66% Calm Calm -- 29.46 in997.6 mb 0.00 in0.0 mm 0.00 in0.0 mm 0.00 in0.0 mm
02:36 PM 36.1°F2.3°C 25.4°F-3.7°C 65% Calm Calm -- 29.46 in997.6 mb 0.00 in0.0 mm 0.00 in0.0 mm 0.00 in0.0 mm
02:51 PM 35.6°F2.0°C 24.5°F-4.2°C 64% Calm Calm -- 29.46 in997.6 mb 0.00 in0.0 mm 0.00 in0.0 mm 0.00 in0.0 mm
03:06 PM 35.2°F1.8°C 23.8°F-4.6°C 63% Calm Calm -- 29.46 in997.6 mb 0.00 in0.0 mm 0.00 in0.0 mm 0.00 in0.0 mm
03:21 PM 35.2°F1.8°C 23.0°F-5.0°C 61% Calm Calm -- 29.47 in998.0 mb 0.00 in0.0 mm 0.00 in0.0 mm 0.00 in0.0 mm
03:36 PM 34.9°F1.6°C 21.8°F-5.7°C 59% Calm Calm -- 29.46 in997.6 mb 0.00 in0.0 mm 0.00 in0.0 mm 0.00 in0.0 mm
03:51 PM 34.5°F1.4°C 20.7°F-6.3°C 57% Calm Calm 0.6 mph1.0 kmh 29.47 in998.0 mb 0.00 in0.0 mm 0.00 in0.0 mm 0.00 in0.0 mm
04:06 PM 34.5°F1.4°C 19.8°F-6.8°C 55% Calm Calm -- 29.47 in998.0 mb 0.00 in0.0 mm 0.00 in0.0 mm 0.00 in0.0 mm
04:21 PM 34.3°F1.3°C 19.2°F-7.1°C 54% Calm Calm -- 29.47 in998.0 mb 0.00 in0.0 mm 0.00 in0.0 mm 0.00 in0.0 mm
04:36 PM 34.3°F1.3°C 18.8°F-7.3°C 53% Calm Calm -- 29.47 in998.0 mb 0.00 in0.0 mm 0.00 in0.0 mm 0.00 in0.0 mm
04:51 PM 34.0°F1.1°C 18.0°F-7.8°C 52% Calm Calm -- 29.47 in998.0 mb 0.00 in0.0 mm 0.00 in0.0 mm 0.00 in0.0 mm
05:06 PM 33.6°F0.9°C 17.7°F-7.9°C 52% Calm Calm -- 29.47 in998.0 mb 0.00 in0.0 mm 0.00 in0.0 mm 0.00 in0.0 mm
05:21 PM 33.6°F0.9°C 17.2°F-8.2°C 51% Calm Calm -- 29.48 in998.3 mb 0.00 in0.0 mm 0.00 in0.0 mm 0.00 in0.0 mm
05:36 PM 33.3°F0.7°C 16.4°F-8.7°C 50% Calm Calm -- 29.48 in998.3 mb 0.00 in0.0 mm 0.00 in0.0 mm 0.00 in0.0 mm
05:51 PM 33.1°F0.6°C 16.3°F-8.7°C 50% Calm Calm -- 29.48 in998.3 mb 0.00 in0.0 mm 0.00 in0.0 mm 0.00 in0.0 mm
06:06 PM 33.1°F0.6°C 16.3°F-8.7°C 50% Calm Calm -- 29.49 in998.6 mb 0.00 in0.0 mm 0.00 in0.0 mm 0.00 in0.0 mm
06:21 PM 33.1°F0.6°C 16.3°F-8.7°C 50% Calm Calm -- 29.49 in998.6 mb 0.00 in0.0 mm 0.00 in0.0 mm 0.00 in0.0 mm
06:36 PM 33.1°F0.6°C 16.3°F-8.7°C 50% Calm Calm -- 29.49 in998.6 mb 0.00 in0.0 mm 0.00 in0.0 mm 0.00 in0.0 mm
06:51 PM 33.3°F0.7°C 16.4°F-8.7°C 50% Calm Calm 1.4 mph2.3 kmh 29.49 in998.6 mb 0.00 in0.0 mm 0.00 in0.0 mm 0.00 in0.0 mm
07:06 PM 33.3°F0.7°C 16.4°F-8.7°C 50% Calm Calm -- 29.49 in998.6 mb 0.00 in0.0 mm 0.00 in0.0 mm 0.00 in0.0 mm
07:21 PM 33.3°F0.7°C 16.4°F-8.7°C 50% Calm Calm 0.6 mph1.0 kmh 29.49 in998.6 mb 0.00 in0.0 mm 0.00 in0.0 mm 0.00 in0.0 mm
07:36 PM 33.1°F0.6°C 16.3°F-8.7°C 50% Calm Calm -- 29.49 in998.6 mb 0.00 in0.0 mm 0.00 in0.0 mm 0.00 in0.0 mm
07:51 PM 33.1°F0.6°C 16.3°F-8.7°C 50% Calm Calm 0.6 mph1.0 kmh 29.50 in999.0 mb 0.00 in0.0 mm 0.00 in0.0 mm 0.00 in0.0 mm
08:06 PM 32.7°F0.4°C 15.5°F-9.2°C 49% Calm Calm 0.6 mph1.0 kmh 29.50 in999.0 mb 0.00 in0.0 mm 0.00 in0.0 mm 0.00 in0.0 mm
08:21 PM 32.9°F0.5°C 14.7°F-9.6°C 47% Calm Calm -- 29.50 in999.0 mb 0.00 in0.0 mm 0.00 in0.0 mm 0.00 in0.0 mm
08:36 PM 32.7°F0.4°C 13.5°F-10.3°C 45% Calm Calm 0.6 mph1.0 kmh 29.50 in999.0 mb 0.00 in0.0 mm 0.00 in0.0 mm 0.00 in0.0 mm
08:51 PM 32.7°F0.4°C 13.0°F-10.6°C 44% Calm Calm 0.6 mph1.0 kmh 29.50 in999.0 mb 0.00 in0.0 mm 0.00 in0.0 mm 0.00 in0.0 mm
09:06 PM 32.5°F0.3°C 12.8°F-10.7°C 44% Calm Calm 0.6 mph1.0 kmh 29.50 in999.0 mb 0.00 in0.0 mm 0.00 in0.0 mm 0.00 in0.0 mm
09:21 PM 32.4°F0.2°C 12.1°F-11.1°C 43% Calm Calm 0.6 mph1.0 kmh 29.50 in999.0 mb 0.00 in0.0 mm 0.00 in0.0 mm 0.00 in0.0 mm
09:36 PM 32.4°F0.2°C 12.1°F-11.1°C 43% Calm Calm 0.6 mph1.0 kmh 29.50 in999.0 mb 0.00 in0.0 mm 0.00 in0.0 mm 0.00 in0.0 mm
09:51 PM 32.0°F0.0°C 11.3°F-11.5°C 42% Calm Calm -- 29.50 in999.0 mb 0.00 in0.0 mm 0.00 in0.0 mm 0.00 in0.0 mm
10:06 PM 31.8°F-0.1°C 11.1°F-11.6°C 42% Calm Calm 2.0 mph3.2 kmh 29.50 in999.0 mb 0.00 in0.0 mm 0.00 in0.0 mm 0.00 in0.0 mm
10:21 PM 31.6°F-0.2°C 11.0°F-11.7°C 42% Calm Calm 2.0 mph3.2 kmh 29.50 in999.0 mb 0.00 in0.0 mm 0.00 in0.0 mm 0.00 in0.0 mm
10:36 PM 31.1°F-0.5°C 9.9°F-12.3°C 41% Calm Calm 0.6 mph1.0 kmh 29.50 in999.0 mb 0.00 in0.0 mm 0.00 in0.0 mm 0.00 in0.0 mm
10:51 PM 30.7°F-0.7°C 9.6°F-12.4°C 41% 0.6 mph N1.0 kmh N 3.4 mph5.5 kmh 29.50 in999.0 mb 0.00 in0.0 mm 0.00 in0.0 mm 0.00 in0.0 mm
11:06 PM 30.6°F-0.8°C 9.4°F-12.6°C 41% Calm Calm 1.4 mph2.3 kmh 29.50 in999.0 mb 0.00 in0.0 mm 0.00 in0.0 mm 0.00 in0.0 mm
11:21 PM 30.6°F-0.8°C 9.4°F-12.6°C 41% Calm Calm 0.6 mph1.0 kmh 29.50 in999.0 mb 0.00 in0.0 mm 0.00 in0.0 mm 0.00 in0.0 mm
11:36 PM 30.6°F-0.8°C 9.4°F-12.6°C 41% Calm Calm 0.6 mph1.0 kmh 29.49 in998.6 mb 0.00 in0.0 mm 0.00 in0.0 mm 0.00 in0.0 mm
11:51 PM 30.4°F-0.9°C 9.3°F-12.6°C 41% Calm Calm 2.0 mph3.2 kmh 29.50 in999.0 mb 0.00 in0.0 mm 0.00 in0.0 mm 0.00 in0.0 mm